createdAt,value
2017-11-24T00:01:55.883Z,7.60
2017-11-24T00:04:22.342Z,7.60
2017-11-24T00:06:48.844Z,7.60
2017-11-24T00:09:15.385Z,7.70
2017-11-24T00:11:42.182Z,7.60
2017-11-24T00:14:08.947Z,7.70
2017-11-24T00:16:35.575Z,7.70
2017-11-24T00:19:02.217Z,7.80
2017-11-24T00:21:30.519Z,7.70
2017-11-24T00:23:56.932Z,7.80
2017-11-24T00:26:23.400Z,7.80
2017-11-24T00:28:49.815Z,7.70
2017-11-24T00:31:16.376Z,7.80
2017-11-24T00:33:42.883Z,7.70
2017-11-24T00:36:09.390Z,7.70
2017-11-24T00:38:36.131Z,7.70
2017-11-24T00:41:02.790Z,7.80
2017-11-24T00:43:29.241Z,7.80
2017-11-24T00:45:55.937Z,7.70
2017-11-24T00:48:22.416Z,7.80
2017-11-24T00:50:48.895Z,7.80
2017-11-24T00:53:15.464Z,7.70
2017-11-24T00:55:41.925Z,7.70
2017-11-24T00:58:08.451Z,7.70
2017-11-24T01:00:35.052Z,7.70
2017-11-24T01:03:01.561Z,7.70
2017-11-24T01:05:28.950Z,7.70
2017-11-24T01:07:55.435Z,7.60
2017-11-24T01:10:21.856Z,7.70
2017-11-24T01:12:48.442Z,7.70
2017-11-24T01:15:15.010Z,7.70
2017-11-24T01:17:41.465Z,7.70
2017-11-24T01:20:07.907Z,7.70
2017-11-24T01:22:34.513Z,7.60
2017-11-24T01:25:01.075Z,7.60
2017-11-24T01:27:27.544Z,7.70
2017-11-24T01:29:54.025Z,7.70
2017-11-24T01:32:20.612Z,7.60
2017-11-24T01:34:47.009Z,7.60
2017-11-24T01:37:13.644Z,7.60
2017-11-24T01:39:40.154Z,7.50
2017-11-24T01:42:06.700Z,7.50
2017-11-24T01:44:33.516Z,7.50
2017-11-24T01:47:00.826Z,7.40
2017-11-24T01:49:27.387Z,7.40
2017-11-24T01:51:54.152Z,7.40
2017-11-24T01:54:20.877Z,7.40
2017-11-24T01:56:47.546Z,7.40
2017-11-24T01:59:14.629Z,7.40
2017-11-24T02:01:41.199Z,7.30
2017-11-24T02:04:07.668Z,7.30
2017-11-24T02:06:34.252Z,7.30
2017-11-24T02:09:00.865Z,7.30
2017-11-24T02:11:27.532Z,7.30
2017-11-24T02:13:54.076Z,7.20
2017-11-24T02:16:21.233Z,7.20
2017-11-24T02:18:48.814Z,7.20
2017-11-24T02:21:16.405Z,7.20
2017-11-24T02:23:42.893Z,7.20
2017-11-24T02:26:09.550Z,7.20
2017-11-24T02:28:36.500Z,7.30
2017-11-24T02:31:03.029Z,7.30
2017-11-24T02:33:29.477Z,7.20
2017-11-24T02:35:56.181Z,7.20
2017-11-24T02:38:22.697Z,7.20
2017-11-24T02:40:49.518Z,7.10
2017-11-24T02:43:16.461Z,7.10
2017-11-24T02:45:43.570Z,7.10
2017-11-24T02:48:10.217Z,7.00
2017-11-24T02:50:36.724Z,7.10
2017-11-24T02:53:04.166Z,7.00
2017-11-24T02:55:31.424Z,7.00
2017-11-24T02:57:57.791Z,7.00
2017-11-24T03:00:24.325Z,7.00
2017-11-24T03:02:51.548Z,7.00
2017-11-24T03:05:19.413Z,7.00
2017-11-24T03:07:45.803Z,6.90
2017-11-24T03:10:12.222Z,7.00
2017-11-24T03:12:38.817Z,7.00
2017-11-24T03:15:05.346Z,7.00
2017-11-24T03:17:32.139Z,6.90
2017-11-24T03:19:58.616Z,6.90
2017-11-24T03:22:25.042Z,6.90
2017-11-24T03:24:52.211Z,6.80
2017-11-24T03:27:18.745Z,6.80
2017-11-24T03:29:45.182Z,6.80
2017-11-24T03:32:11.773Z,6.80
2017-11-24T03:34:38.243Z,6.70
2017-11-24T03:37:04.726Z,6.70
2017-11-24T03:39:32.415Z,6.60
2017-11-24T03:41:59.712Z,6.50
2017-11-24T03:44:26.236Z,6.50
2017-11-24T03:46:53.647Z,6.50
2017-11-24T03:49:20.441Z,6.40
2017-11-24T03:51:47.073Z,6.40
2017-11-24T03:54:13.644Z,6.40
2017-11-24T03:56:40.506Z,6.40
2017-11-24T03:59:08.473Z,6.30
2017-11-24T04:01:34.952Z,6.30
2017-11-24T04:04:01.463Z,6.20
2017-11-24T04:06:27.978Z,6.20
2017-11-24T04:08:54.574Z,6.20
2017-11-24T04:11:21.272Z,6.20
2017-11-24T04:13:47.870Z,6.10
2017-11-24T04:16:14.578Z,6.10
2017-11-24T04:18:41.175Z,6.00
2017-11-24T04:21:08.565Z,6.10
2017-11-24T04:23:35.019Z,6.00
2017-11-24T04:26:01.461Z,6.00
2017-11-24T04:28:27.983Z,6.00
2017-11-24T04:30:54.443Z,6.00
2017-11-24T04:33:20.911Z,5.90
2017-11-24T04:35:47.488Z,6.00
2017-11-24T04:38:14.057Z,6.00
2017-11-24T04:40:40.973Z,6.10
2017-11-24T04:43:08.628Z,6.10
2017-11-24T04:48:33.373Z,6.10
2017-11-24T04:50:59.980Z,6.10
2017-11-24T04:53:26.452Z,6.10
2017-11-24T04:55:52.875Z,6.20
2017-11-24T04:58:19.338Z,6.10
2017-11-24T05:00:45.958Z,6.10
2017-11-24T05:03:12.378Z,6.10
2017-11-24T05:05:38.833Z,6.10
2017-11-24T05:08:05.481Z,6.00
2017-11-24T05:10:31.987Z,6.00
2017-11-24T05:12:58.518Z,6.00
2017-11-24T05:15:26.736Z,6.10
2017-11-24T05:17:53.681Z,6.00
2017-11-24T05:20:21.433Z,6.10
2017-11-24T05:22:47.909Z,6.00
2017-11-24T05:25:15.172Z,6.10
2017-11-24T05:27:41.708Z,6.10
2017-11-24T05:30:10.587Z,6.20
2017-11-24T05:32:37.053Z,6.20
2017-11-24T05:35:03.522Z,6.20
2017-11-24T05:37:29.984Z,6.30
2017-11-24T05:39:56.459Z,6.30
2017-11-24T05:42:23.348Z,6.30
2017-11-24T05:44:56.173Z,6.40
2017-11-24T05:47:23.623Z,6.40
2017-11-24T05:49:50.199Z,6.40
2017-11-24T05:52:16.701Z,6.40
2017-11-24T05:54:43.138Z,6.50
2017-11-24T05:57:09.674Z,6.40
2017-11-24T05:59:36.090Z,6.40
2017-11-24T06:02:02.568Z,6.40
2017-11-24T06:04:28.990Z,6.50
2017-11-24T06:06:56.015Z,6.50
2017-11-24T06:09:23.407Z,6.50
2017-11-24T06:11:49.806Z,6.40
2017-11-24T06:14:16.284Z,6.30
2017-11-24T06:16:43.169Z,6.30
2017-11-24T06:19:11.445Z,6.30
2017-11-24T06:21:38.714Z,6.30
2017-11-24T06:24:05.336Z,6.20
2017-11-24T06:26:31.928Z,6.30
2017-11-24T06:28:58.407Z,6.30
2017-11-24T06:31:24.855Z,6.30
2017-11-24T06:33:51.289Z,6.30
2017-11-24T06:36:17.897Z,6.30
2017-11-24T06:38:44.377Z,6.30
2017-11-24T06:41:10.821Z,6.40
2017-11-24T06:43:37.268Z,6.30
2017-11-24T06:46:04.653Z,6.30
2017-11-24T06:48:30.991Z,6.30
2017-11-24T06:50:58.394Z,6.30
2017-11-24T06:53:24.810Z,6.30
2017-11-24T06:55:51.228Z,6.40
2017-11-24T06:58:18.267Z,6.50
2017-11-24T07:00:45.582Z,6.50
2017-11-24T07:03:12.002Z,6.50
2017-11-24T07:05:38.506Z,6.50
2017-11-24T07:08:05.550Z,6.60
2017-11-24T07:10:32.192Z,6.60
2017-11-24T07:13:05.401Z,6.50
2017-11-24T07:15:32.135Z,6.40
2017-11-24T07:17:58.931Z,6.40
2017-11-24T07:20:26.910Z,6.30
2017-11-24T07:22:53.646Z,6.30
2017-11-24T07:25:21.323Z,6.30
2017-11-24T07:27:47.881Z,6.20
2017-11-24T07:30:14.314Z,6.20
2017-11-24T07:32:40.728Z,6.10
2017-11-24T07:35:07.202Z,6.20
2017-11-24T07:37:34.959Z,6.20
2017-11-24T07:40:02.177Z,6.20
2017-11-24T07:42:29.637Z,6.20
2017-11-24T07:44:57.297Z,6.20
2017-11-24T07:47:23.816Z,6.20
2017-11-24T07:49:52.063Z,6.20
2017-11-24T07:52:19.263Z,6.20
2017-11-24T07:54:46.035Z,6.20
2017-11-24T07:57:12.489Z,6.20
2017-11-24T07:59:39.164Z,6.10
2017-11-24T08:02:06.141Z,6.20
2017-11-24T08:04:32.635Z,6.20
2017-11-24T08:06:59.827Z,6.10
2017-11-24T08:09:26.870Z,6.00
2017-11-24T08:11:53.679Z,6.10
2017-11-24T08:14:20.886Z,6.10
2017-11-24T08:16:47.293Z,6.20
2017-11-24T08:19:13.755Z,6.10
2017-11-24T08:21:40.185Z,6.10
2017-11-24T08:24:06.690Z,6.10
2017-11-24T08:26:33.238Z,6.10
2017-11-24T08:28:59.760Z,6.10
2017-11-24T08:31:26.575Z,6.10
2017-11-24T08:33:53.202Z,6.10
2017-11-24T08:36:20.107Z,6.10
2017-11-24T08:38:46.928Z,6.10
2017-11-24T08:41:13.470Z,6.10
2017-11-24T08:43:39.940Z,6.10
2017-11-24T08:46:06.360Z,6.20
2017-11-24T08:48:40.566Z,6.30
2017-11-24T08:51:08.888Z,6.20
2017-11-24T08:53:35.664Z,6.30
2017-11-24T08:56:03.633Z,6.30
2017-11-24T08:58:30.858Z,6.30
2017-11-24T09:00:58.292Z,6.20
2017-11-24T09:03:25.129Z,6.20
2017-11-24T09:05:54.973Z,6.20
2017-11-24T09:08:22.906Z,6.20
2017-11-24T09:10:51.869Z,6.20
2017-11-24T09:13:19.089Z,6.20
2017-11-24T09:15:46.460Z,6.20
2017-11-24T09:18:12.911Z,6.10
2017-11-24T09:20:40.289Z,6.20
2017-11-24T09:23:06.767Z,6.20
2017-11-24T09:25:33.423Z,6.20
2017-11-24T09:28:00.323Z,6.20
2017-11-24T09:30:27.127Z,6.30
2017-11-24T09:32:53.692Z,6.30
2017-11-24T09:35:20.280Z,6.30
2017-11-24T09:37:47.647Z,6.30
2017-11-24T09:40:14.252Z,6.30
2017-11-24T09:42:41.402Z,6.30
2017-11-24T09:45:09.316Z,6.30
2017-11-24T09:47:36.743Z,6.30
2017-11-24T09:50:03.252Z,6.20
2017-11-24T09:52:29.787Z,6.30
2017-11-24T09:54:57.232Z,6.40
2017-11-24T09:57:23.699Z,6.40
2017-11-24T09:59:50.180Z,6.50
2017-11-24T10:02:16.644Z,6.50
2017-11-24T10:04:43.321Z,6.50
2017-11-24T10:07:10.749Z,6.70
2017-11-24T10:09:37.245Z,6.90
2017-11-24T10:12:06.930Z,6.90
2017-11-24T10:14:35.061Z,7.10
2017-11-24T10:17:01.903Z,7.10
2017-11-24T10:19:28.444Z,7.20
2017-11-24T10:22:00.909Z,7.20
2017-11-24T10:24:27.387Z,7.20
2017-11-24T10:26:54.064Z,7.20
2017-11-24T10:29:21.650Z,7.30
2017-11-24T10:31:48.267Z,7.20
2017-11-24T10:34:15.493Z,7.20
2017-11-24T10:36:41.938Z,7.30
2017-11-24T10:39:08.454Z,7.40
2017-11-24T10:41:36.212Z,7.50
2017-11-24T10:44:02.621Z,7.50
2017-11-24T10:46:29.091Z,7.60
2017-11-24T10:48:55.505Z,7.70
2017-11-24T10:51:22.799Z,7.70
2017-11-24T10:53:49.423Z,7.50
2017-11-24T10:56:16.210Z,7.40
2017-11-24T10:58:42.782Z,7.30
2017-11-24T11:01:09.263Z,7.20
2017-11-24T11:03:36.930Z,7.10
2017-11-24T11:06:04.259Z,7.00
2017-11-24T11:08:32.566Z,7.00
2017-11-24T11:10:59.064Z,6.90
2017-11-24T11:13:25.526Z,6.80
2017-11-24T11:15:52.088Z,6.80
2017-11-24T11:18:18.554Z,6.70
2017-11-24T11:20:44.987Z,6.70
2017-11-24T11:23:11.417Z,6.70
2017-11-24T11:25:37.905Z,6.80
2017-11-24T11:28:04.328Z,6.80
2017-11-24T11:30:30.787Z,6.80
2017-11-24T11:32:57.273Z,6.90
2017-11-24T11:35:23.735Z,7.00
2017-11-24T11:37:50.961Z,7.20
2017-11-24T11:40:17.551Z,7.10
2017-11-24T11:42:44.129Z,7.20
2017-11-24T11:45:10.939Z,7.30
2017-11-24T11:47:37.402Z,7.40
2017-11-24T11:50:03.933Z,7.40
2017-11-24T11:52:30.429Z,7.50
2017-11-24T11:54:57.662Z,7.50
2017-11-24T11:57:25.983Z,7.50
2017-11-24T11:59:52.543Z,7.60
2017-11-24T12:02:19.661Z,7.70
2017-11-24T12:04:46.331Z,7.60
2017-11-24T12:07:13.819Z,7.50
2017-11-24T12:09:40.384Z,7.50
2017-11-24T12:12:08.505Z,7.40
2017-11-24T12:14:35.694Z,7.50
2017-11-24T12:17:02.340Z,7.50
2017-11-24T12:19:28.858Z,7.50
2017-11-24T12:21:55.475Z,7.60
2017-11-24T12:24:22.002Z,7.50
2017-11-24T12:26:48.569Z,7.50
2017-11-24T12:29:15.196Z,7.50
2017-11-24T12:31:42.477Z,7.50
2017-11-24T12:34:10.953Z,7.60
2017-11-24T12:36:37.492Z,8.00
2017-11-24T12:39:03.963Z,8.20
2017-11-24T12:41:30.445Z,8.30
2017-11-24T12:43:56.913Z,8.30
2017-11-24T12:46:23.334Z,8.10
2017-11-24T12:48:49.744Z,8.00
2017-11-24T12:51:21.458Z,7.90
2017-11-24T12:53:49.009Z,7.90
2017-11-24T12:56:15.506Z,8.00
2017-11-24T12:58:42.665Z,8.40
2017-11-24T13:01:09.024Z,8.40
2017-11-24T13:03:35.408Z,8.50
2017-11-24T13:06:02.001Z,8.50
2017-11-24T13:08:28.325Z,8.50
2017-11-24T13:10:54.636Z,8.40
2017-11-24T13:13:21.809Z,8.10
2017-11-24T13:15:48.382Z,8.00
2017-11-24T13:18:15.574Z,7.90
2017-11-24T13:20:42.028Z,7.90
2017-11-24T13:23:09.430Z,8.10
2017-11-24T13:25:35.981Z,8.00
2017-11-24T13:28:02.689Z,8.10
2017-11-24T13:30:29.145Z,8.10
2017-11-24T13:32:56.518Z,8.30
2017-11-24T13:35:23.978Z,8.20
2017-11-24T13:37:53.703Z,8.40
2017-11-24T13:40:20.161Z,8.40
2017-11-24T13:42:46.595Z,8.30
2017-11-24T13:45:13.086Z,8.10
2017-11-24T13:47:40.455Z,8.00
2017-11-24T13:50:07.741Z,7.90
2017-11-24T13:52:34.189Z,7.90
2017-11-24T13:55:00.579Z,7.80
2017-11-24T13:57:27.055Z,7.80
2017-11-24T13:59:56.093Z,7.80
2017-11-24T14:02:22.671Z,7.70
2017-11-24T14:04:50.526Z,7.60
2017-11-24T14:07:17.569Z,7.50
2017-11-24T14:09:44.063Z,7.40
2017-11-24T14:12:11.947Z,7.50
2017-11-24T14:14:39.693Z,7.50
2017-11-24T14:17:06.117Z,7.40
2017-11-24T14:19:32.737Z,7.40
2017-11-24T14:21:59.245Z,7.40
2017-11-24T14:24:25.706Z,7.30
2017-11-24T14:26:52.257Z,7.30
2017-11-24T14:29:18.759Z,7.20
2017-11-24T14:31:45.179Z,7.30
2017-11-24T14:34:11.742Z,7.20
2017-11-24T14:36:38.258Z,7.20
2017-11-24T14:39:07.311Z,7.20
2017-11-24T14:41:34.615Z,7.10
2017-11-24T14:44:00.950Z,7.10
2017-11-24T14:46:27.418Z,7.10
2017-11-24T14:48:53.861Z,7.10
2017-11-24T14:51:20.276Z,7.00
2017-11-24T14:53:46.652Z,7.00
2017-11-24T14:56:14.210Z,7.00
2017-11-24T14:58:40.678Z,7.00
2017-11-24T15:01:07.172Z,7.00
2017-11-24T15:03:33.641Z,7.00
2017-11-24T15:06:00.174Z,7.00
2017-11-24T15:08:27.521Z,7.00
2017-11-24T15:10:54.960Z,6.90
2017-11-24T15:13:23.197Z,7.10
2017-11-24T15:15:50.697Z,7.10
2017-11-24T15:18:17.388Z,7.20
2017-11-24T15:20:44.746Z,7.10
2017-11-24T15:23:11.949Z,7.10
2017-11-24T15:25:38.661Z,7.10
2017-11-24T15:28:05.148Z,7.00
2017-11-24T15:30:33.476Z,7.00
2017-11-24T15:33:01.944Z,7.00
2017-11-24T15:35:29.343Z,6.90
2017-11-24T15:37:55.766Z,6.90
2017-11-24T15:40:23.816Z,6.80
2017-11-24T15:42:50.254Z,6.80
2017-11-24T15:45:18.188Z,6.70
2017-11-24T15:47:45.159Z,6.60
2017-11-24T15:50:11.992Z,6.60
2017-11-24T15:52:39.350Z,6.60
2017-11-24T15:55:06.715Z,6.60
2017-11-24T15:57:34.561Z,6.50
2017-11-24T16:00:01.732Z,6.50
2017-11-24T16:02:30.059Z,6.50
2017-11-24T16:04:56.435Z,6.50
2017-11-24T16:07:22.809Z,6.50
2017-11-24T16:09:49.311Z,6.50
2017-11-24T16:12:15.789Z,6.50
2017-11-24T16:14:42.277Z,6.50
2017-11-24T16:17:08.816Z,6.50
2017-11-24T16:19:35.361Z,6.50
2017-11-24T16:22:02.812Z,6.50
2017-11-24T16:24:30.554Z,6.50
2017-11-24T16:26:57.137Z,6.50
2017-11-24T16:29:24.042Z,6.40
2017-11-24T16:31:50.627Z,6.40
2017-11-24T16:34:17.245Z,6.40
2017-11-24T16:36:45.015Z,6.40
2017-11-24T16:39:13.259Z,6.40
2017-11-24T16:41:39.858Z,6.40
2017-11-24T16:44:06.396Z,6.40
2017-11-24T16:46:34.142Z,6.30
2017-11-24T16:49:00.786Z,6.30
2017-11-24T16:51:28.055Z,6.40
2017-11-24T16:53:54.567Z,6.40
2017-11-24T16:56:20.994Z,6.40
2017-11-24T16:58:47.637Z,6.30
2017-11-24T17:01:15.183Z,6.30
2017-11-24T17:03:42.005Z,6.20
2017-11-24T17:06:10.577Z,6.20
2017-11-24T17:08:37.613Z,6.20
2017-11-24T17:11:04.790Z,6.20
2017-11-24T17:13:32.883Z,6.20
2017-11-24T17:15:59.706Z,6.20
2017-11-24T17:18:28.576Z,6.30
2017-11-24T17:20:57.452Z,6.30
2017-11-24T17:23:25.296Z,6.20
2017-11-24T17:25:52.276Z,6.20
2017-11-24T17:28:19.466Z,6.20
2017-11-24T17:30:46.822Z,6.10
2017-11-24T17:33:14.106Z,6.00
2017-11-24T17:35:40.461Z,6.00
2017-11-24T17:38:07.817Z,5.90
2017-11-24T17:40:34.398Z,5.80
2017-11-24T17:43:00.845Z,5.90
2017-11-24T17:45:27.427Z,5.80
2017-11-24T17:47:54.928Z,5.70
2017-11-24T17:50:21.360Z,5.60
2017-11-24T17:52:49.016Z,5.70
2017-11-24T17:55:15.397Z,5.60
2017-11-24T17:57:42.471Z,5.50
2017-11-24T18:00:08.981Z,5.50
2017-11-24T18:02:35.346Z,5.50
2017-11-24T18:05:02.502Z,5.30
2017-11-24T18:07:29.050Z,5.30
2017-11-24T18:09:55.473Z,5.50
2017-11-24T18:12:21.833Z,5.40
2017-11-24T18:14:48.375Z,5.40
2017-11-24T18:17:14.741Z,5.30
2017-11-24T18:19:41.167Z,5.30
2017-11-24T18:22:07.981Z,5.30
2017-11-24T18:24:34.384Z,5.20
2017-11-24T18:27:00.805Z,5.10
2017-11-24T18:29:27.252Z,5.10
2017-11-24T18:31:53.738Z,5.10
2017-11-24T18:34:20.124Z,5.10
2017-11-24T18:36:46.717Z,5.10
2017-11-24T18:39:13.360Z,5.00
2017-11-24T18:41:40.021Z,4.90
2017-11-24T18:44:06.633Z,4.90
2017-11-24T18:46:33.437Z,4.80
2017-11-24T18:48:59.998Z,4.80
2017-11-24T18:51:26.574Z,4.80
2017-11-24T18:53:54.062Z,4.90
2017-11-24T18:56:21.111Z,4.80
2017-11-24T18:58:48.652Z,4.90
2017-11-24T19:01:15.217Z,4.90
2017-11-24T19:03:42.298Z,4.80
2017-11-24T19:06:09.816Z,4.70
2017-11-24T19:08:37.109Z,4.70
2017-11-24T19:11:03.597Z,4.80
2017-11-24T19:13:30.177Z,4.90
2017-11-24T19:15:57.038Z,4.80
2017-11-24T19:18:27.037Z,4.90
2017-11-24T19:20:54.443Z,4.70
2017-11-24T19:23:21.709Z,4.70
2017-11-24T19:25:48.727Z,4.70
2017-11-24T19:28:17.168Z,4.70
2017-11-24T19:30:43.846Z,4.80
2017-11-24T19:33:10.544Z,4.80
2017-11-24T19:35:37.207Z,4.80
2017-11-24T19:38:03.661Z,4.70
2017-11-24T19:40:30.089Z,4.60
2017-11-24T19:42:56.562Z,4.70
2017-11-24T19:45:23.733Z,4.70
2017-11-24T19:47:51.092Z,4.60
2017-11-24T19:50:18.274Z,4.70
2017-11-24T19:52:45.437Z,4.80
2017-11-24T19:55:11.864Z,4.80
2017-11-24T19:57:38.416Z,4.80
2017-11-24T20:00:04.985Z,4.90
2017-11-24T20:02:32.085Z,5.00
2017-11-24T20:04:59.190Z,4.90
2017-11-24T20:07:25.850Z,5.00
2017-11-24T20:09:56.120Z,4.90
2017-11-24T20:12:23.061Z,4.90
2017-11-24T20:14:52.657Z,5.00
2017-11-24T20:17:19.796Z,4.90
2017-11-24T20:19:46.418Z,4.90
2017-11-24T20:22:13.349Z,5.00
2017-11-24T20:24:40.591Z,5.00
2017-11-24T20:27:07.901Z,4.90
2017-11-24T20:29:34.597Z,4.90
2017-11-24T20:32:01.268Z,4.90
2017-11-24T20:34:27.936Z,4.90
2017-11-24T20:36:55.406Z,4.90
2017-11-24T20:39:22.394Z,4.80
2017-11-24T20:41:48.883Z,4.90
2017-11-24T20:44:16.342Z,4.80
2017-11-24T20:46:42.932Z,4.90
2017-11-24T20:49:09.435Z,4.80
2017-11-24T20:51:36.285Z,4.80
2017-11-24T20:54:02.869Z,4.80
2017-11-24T20:56:29.705Z,4.70
2017-11-24T20:58:56.472Z,4.70
2017-11-24T21:01:23.991Z,4.70
2017-11-24T21:03:50.762Z,4.60
2017-11-24T21:06:17.776Z,4.70
2017-11-24T21:08:44.431Z,4.70
2017-11-24T21:11:11.196Z,4.70
2017-11-24T21:13:38.505Z,4.70
2017-11-24T21:16:05.847Z,4.80
2017-11-24T21:18:32.495Z,4.70
2017-11-24T21:20:59.022Z,4.70
2017-11-24T21:23:26.678Z,4.70
2017-11-24T21:25:53.538Z,4.70
2017-11-24T21:28:21.001Z,4.70
2017-11-24T21:30:47.643Z,4.70
2017-11-24T21:33:14.569Z,4.70
2017-11-24T21:35:41.061Z,4.70
2017-11-24T21:38:08.098Z,4.70
2017-11-24T21:40:34.595Z,4.70
2017-11-24T21:43:01.492Z,4.60
2017-11-24T21:45:28.127Z,4.60
2017-11-24T21:47:58.473Z,4.60
2017-11-24T21:50:26.101Z,4.60
2017-11-24T21:52:54.310Z,4.60
2017-11-24T21:55:21.640Z,4.60
2017-11-24T21:57:48.076Z,4.50
2017-11-24T22:00:14.530Z,4.50
2017-11-24T22:02:41.757Z,4.40
2017-11-24T22:05:08.737Z,4.40
2017-11-24T22:07:35.238Z,4.40
2017-11-24T22:10:02.795Z,4.40
2017-11-24T22:12:29.355Z,4.30
2017-11-24T22:14:56.470Z,4.40
2017-11-24T22:17:22.995Z,4.40
2017-11-24T22:19:49.986Z,4.40
2017-11-24T22:22:16.434Z,4.40
2017-11-24T22:24:42.886Z,4.40
2017-11-24T22:27:09.518Z,4.40
2017-11-24T22:29:36.059Z,4.40
2017-11-24T22:32:11.873Z,4.40
2017-11-24T22:34:39.202Z,4.30
2017-11-24T22:37:05.913Z,4.30
2017-11-24T22:39:32.811Z,4.30
2017-11-24T22:41:59.324Z,4.30
2017-11-24T22:44:26.810Z,4.20
2017-11-24T22:46:53.419Z,4.20
2017-11-24T22:49:20.606Z,4.20
2017-11-24T22:51:47.371Z,4.10
2017-11-24T22:54:13.818Z,4.20
2017-11-24T22:56:41.237Z,4.20
2017-11-24T22:59:08.034Z,4.20
2017-11-24T23:01:34.561Z,4.30
2017-11-24T23:04:01.095Z,4.20
2017-11-24T23:06:27.505Z,4.00
2017-11-24T23:08:54.062Z,3.80
2017-11-24T23:11:20.864Z,3.80
2017-11-24T23:13:47.387Z,4.00
2017-11-24T23:16:14.040Z,3.90
2017-11-24T23:18:41.444Z,4.00
2017-11-24T23:21:07.892Z,3.90
2017-11-24T23:23:34.456Z,3.80
2017-11-24T23:26:01.149Z,3.80
2017-11-24T23:28:28.478Z,3.60
2017-11-24T23:30:55.476Z,3.50
2017-11-24T23:33:22.455Z,3.70
2017-11-24T23:35:48.777Z,3.70
2017-11-24T23:38:15.216Z,3.70
2017-11-24T23:40:41.662Z,3.60
2017-11-24T23:43:08.111Z,3.50
2017-11-24T23:45:34.644Z,3.50
2017-11-24T23:48:01.515Z,3.50
2017-11-24T23:50:28.404Z,3.30
2017-11-24T23:52:54.863Z,3.10
2017-11-24T23:55:24.514Z,2.90
2017-11-24T23:57:51.253Z,2.90
